sensor_id;sensor_type;location;lat;lon;timestamp;pressure;altitude;pressure_sealevel;temperature;humidity
72685;BME280;61365;52.162;4.500;2023-03-01T00:01:19;103254.66;;;2.01;80.21
72685;BME280;61365;52.162;4.500;2023-03-01T00:03:47;103240.34;;;2.06;79.97
72685;BME280;61365;52.162;4.500;2023-03-01T00:06:14;103246.91;;;1.89;80.75
72685;BME280;61365;52.162;4.500;2023-03-01T00:08:41;103240.94;;;2.02;80.73
72685;BME280;61365;52.162;4.500;2023-03-01T00:11:16;103247.00;;;2.02;81.06
72685;BME280;61365;52.162;4.500;2023-03-01T00:13:49;103236.09;;;1.94;81.35
72685;BME280;61365;52.162;4.500;2023-03-01T00:16:22;103233.81;;;1.87;81.83
72685;BME280;61365;52.162;4.500;2023-03-01T00:18:56;103233.59;;;1.72;83.23
72685;BME280;61365;52.162;4.500;2023-03-01T00:21:24;103232.34;;;1.91;82.43
72685;BME280;61365;52.162;4.500;2023-03-01T00:23:51;103234.63;;;1.86;82.82
72685;BME280;61365;52.162;4.500;2023-03-01T00:26:20;103224.16;;;1.97;83.03
72685;BME280;61365;52.162;4.500;2023-03-01T00:28:48;103227.38;;;2.06;83.29
72685;BME280;61365;52.162;4.500;2023-03-01T00:31:18;103221.78;;;2.00;83.86
72685;BME280;61365;52.162;4.500;2023-03-01T00:33:47;103211.31;;;1.98;84.41
72685;BME280;61365;52.162;4.500;2023-03-01T00:36:15;103225.59;;;2.05;84.14
72685;BME280;61365;52.162;4.500;2023-03-01T00:38:44;103220.56;;;1.83;84.39
72685;BME280;61365;52.162;4.500;2023-03-01T00:41:13;103215.59;;;1.86;84.91
72685;BME280;61365;52.162;4.500;2023-03-01T00:43:44;103218.28;;;1.87;84.68
72685;BME280;61365;52.162;4.500;2023-03-01T00:46:17;103216.63;;;1.76;85.11
72685;BME280;61365;52.162;4.500;2023-03-01T00:48:45;103228.19;;;1.69;86.21
72685;BME280;61365;52.162;4.500;2023-03-01T00:51:18;103224.59;;;1.79;85.98
72685;BME280;61365;52.162;4.500;2023-03-01T00:53:47;103217.41;;;1.75;86.01
72685;BME280;61365;52.162;4.500;2023-03-01T00:56:16;103227.63;;;1.61;86.58
72685;BME280;61365;52.162;4.500;2023-03-01T00:58:43;103222.22;;;1.58;86.83
72685;BME280;61365;52.162;4.500;2023-03-01T01:01:15;103211.63;;;1.79;86.46
72685;BME280;61365;52.162;4.500;2023-03-01T01:04:07;103213.34;;;1.78;86.37
72685;BME280;61365;52.162;4.500;2023-03-01T01:06:38;103214.69;;;1.85;86.29
72685;BME280;61365;52.162;4.500;2023-03-01T01:09:11;103210.97;;;1.82;85.97
72685;BME280;61365;52.162;4.500;2023-03-01T01:11:49;103215.94;;;1.67;87.09
72685;BME280;61365;52.162;4.500;2023-03-01T01:14:17;103209.06;;;1.79;86.96
72685;BME280;61365;52.162;4.500;2023-03-01T01:16:44;103205.25;;;1.74;86.80
72685;BME280;61365;52.162;4.500;2023-03-01T01:19:11;103204.88;;;1.57;87.35
72685;BME280;61365;52.162;4.500;2023-03-01T01:21:40;103205.81;;;1.70;87.44
72685;BME280;61365;52.162;4.500;2023-03-01T01:24:09;103195.78;;;1.62;87.66
72685;BME280;61365;52.162;4.500;2023-03-01T01:26:36;103205.66;;;1.80;87.53
72685;BME280;61365;52.162;4.500;2023-03-01T01:29:04;103195.56;;;1.71;87.42
72685;BME280;61365;52.162;4.500;2023-03-01T01:31:32;103193.31;;;1.88;87.57
72685;BME280;61365;52.162;4.500;2023-03-01T01:34:01;103195.22;;;1.67;87.59
72685;BME280;61365;52.162;4.500;2023-03-01T01:36:30;103189.72;;;1.50;88.23
72685;BME280;61365;52.162;4.500;2023-03-01T01:38:57;103190.69;;;1.64;88.50
72685;BME280;61365;52.162;4.500;2023-03-01T01:41:25;103177.66;;;1.50;88.47
72685;BME280;61365;52.162;4.500;2023-03-01T01:44:13;103171.47;;;1.60;88.84
72685;BME280;61365;52.162;4.500;2023-03-01T01:46:55;103162.59;;;1.69;88.71
72685;BME280;61365;52.162;4.500;2023-03-01T01:49:29;103163.16;;;1.53;88.98
72685;BME280;61365;52.162;4.500;2023-03-01T01:52:22;103156.03;;;1.26;89.08
72685;BME280;61365;52.162;4.500;2023-03-01T01:54:58;103151.22;;;1.31;89.75
72685;BME280;61365;52.162;4.500;2023-03-01T01:57:37;103165.94;;;1.32;89.61
72685;BME280;61365;52.162;4.500;2023-03-01T02:02:42;103160.06;;;1.23;89.76
72685;BME280;61365;52.162;4.500;2023-03-01T02:08:20;103155.38;;;1.41;89.29
72685;BME280;61365;52.162;4.500;2023-03-01T02:10:51;103161.91;;;1.47;89.10
72685;BME280;61365;52.162;4.500;2023-03-01T02:13:20;103153.91;;;1.44;89.06
72685;BME280;61365;52.162;4.500;2023-03-01T02:15:46;103150.31;;;1.42;88.87
72685;BME280;61365;52.162;4.500;2023-03-01T02:18:20;103147.28;;;1.48;89.44
72685;BME280;61365;52.162;4.500;2023-03-01T02:23:43;103146.69;;;1.28;89.36
72685;BME280;61365;52.162;4.500;2023-03-01T02:26:30;103141.53;;;1.28;89.25
72685;BME280;61365;52.162;4.500;2023-03-01T02:29:00;103148.16;;;1.37;89.77
72685;BME280;61365;52.162;4.500;2023-03-01T02:31:31;103149.97;;;1.38;90.03
72685;BME280;61365;52.162;4.500;2023-03-01T02:34:10;103143.31;;;1.41;89.60
72685;BME280;61365;52.162;4.500;2023-03-01T02:36:47;103139.53;;;1.36;89.82
72685;BME280;61365;52.162;4.500;2023-03-01T02:39:30;103143.56;;;1.44;90.25
72685;BME280;61365;52.162;4.500;2023-03-01T02:42:01;103141.88;;;1.33;90.78
72685;BME280;61365;52.162;4.500;2023-03-01T02:44:29;103141.75;;;1.31;90.79
72685;BME280;61365;52.162;4.500;2023-03-01T02:46:57;103133.75;;;1.28;91.11
72685;BME280;61365;52.162;4.500;2023-03-01T02:49:32;103135.91;;;1.22;91.38
72685;BME280;61365;52.162;4.500;2023-03-01T02:52:41;103144.22;;;1.18;91.41
72685;BME280;61365;52.162;4.500;2023-03-01T02:55:17;103131.41;;;1.31;91.23
72685;BME280;61365;52.162;4.500;2023-03-01T02:57:46;103130.84;;;1.35;90.41
72685;BME280;61365;52.162;4.500;2023-03-01T03:00:26;103123.75;;;1.21;90.77
72685;BME280;61365;52.162;4.500;2023-03-01T03:03:00;103120.72;;;1.27;90.85
72685;BME280;61365;52.162;4.500;2023-03-01T03:05:29;103117.22;;;1.26;90.59
72685;BME280;61365;52.162;4.500;2023-03-01T03:07:58;103113.66;;;1.24;90.09
72685;BME280;61365;52.162;4.500;2023-03-01T03:10:29;103110.47;;;1.16;90.95
72685;BME280;61365;52.162;4.500;2023-03-01T03:13:05;103112.16;;;1.04;91.25
72685;BME280;61365;52.162;4.500;2023-03-01T03:15:34;103101.25;;;1.08;91.67
72685;BME280;61365;52.162;4.500;2023-03-01T03:18:08;103106.53;;;0.98;91.38
72685;BME280;61365;52.162;4.500;2023-03-01T03:20:36;103108.97;;;0.84;91.94
72685;BME280;61365;52.162;4.500;2023-03-01T03:23:05;103098.22;;;1.14;91.94
72685;BME280;61365;52.162;4.500;2023-03-01T03:25:32;103102.69;;;1.04;91.52
72685;BME280;61365;52.162;4.500;2023-03-01T03:27:58;103100.72;;;1.24;91.09
72685;BME280;61365;52.162;4.500;2023-03-01T03:30:27;103104.97;;;1.12;90.92
72685;BME280;61365;52.162;4.500;2023-03-01T03:32:56;103094.84;;;1.15;91.30
72685;BME280;61365;52.162;4.500;2023-03-01T03:35:33;103099.09;;;1.14;91.16
72685;BME280;61365;52.162;4.500;2023-03-01T03:38:07;103092.13;;;1.01;91.63
72685;BME280;61365;52.162;4.500;2023-03-01T03:40:46;103101.28;;;1.20;91.59
72685;BME280;61365;52.162;4.500;2023-03-01T03:43:20;103099.00;;;1.01;91.68
72685;BME280;61365;52.162;4.500;2023-03-01T03:45:50;103097.88;;;0.97;92.23
72685;BME280;61365;52.162;4.500;2023-03-01T03:48:17;103098.75;;;0.98;92.18
72685;BME280;61365;52.162;4.500;2023-03-01T03:50:51;103101.00;;;0.93;92.42
72685;BME280;61365;52.162;4.500;2023-03-01T03:53:20;103092.19;;;1.25;91.86
72685;BME280;61365;52.162;4.500;2023-03-01T03:55:48;103086.84;;;1.00;91.48
72685;BME280;61365;52.162;4.500;2023-03-01T03:58:21;103083.81;;;0.94;91.94
72685;BME280;61365;52.162;4.500;2023-03-01T04:00:54;103076.16;;;0.83;91.88
72685;BME280;61365;52.162;4.500;2023-03-01T04:03:24;103090.66;;;0.81;92.38
72685;BME280;61365;52.162;4.500;2023-03-01T04:05:52;103077.59;;;0.80;92.37
72685;BME280;61365;52.162;4.500;2023-03-01T04:08:20;103085.69;;;0.72;92.63
72685;BME280;61365;52.162;4.500;2023-03-01T04:10:50;103090.38;;;0.66;92.81
72685;BME280;61365;52.162;4.500;2023-03-01T04:13:22;103094.75;;;0.55;93.50
72685;BME280;61365;52.162;4.500;2023-03-01T04:15:52;103084.28;;;0.54;93.41
72685;BME280;61365;52.162;4.500;2023-03-01T04:18:21;103087.78;;;0.54;94.20
72685;BME280;61365;52.162;4.500;2023-03-01T04:20:49;103091.13;;;0.53;94.06
72685;BME280;61365;52.162;4.500;2023-03-01T04:23:21;103076.97;;;0.48;94.25
72685;BME280;61365;52.162;4.500;2023-03-01T04:25:55;103076.97;;;0.48;94.25
72685;BME280;61365;52.162;4.500;2023-03-01T04:28:26;103078.28;;;0.43;94.53
72685;BME280;61365;52.162;4.500;2023-03-01T04:31:07;103078.19;;;0.41;94.47
72685;BME280;61365;52.162;4.500;2023-03-01T04:33:52;103080.03;;;0.54;94.30
72685;BME280;61365;52.162;4.500;2023-03-01T04:36:23;103083.63;;;0.56;94.14
72685;BME280;61365;52.162;4.500;2023-03-01T04:38:51;103073.50;;;0.48;94.05
72685;BME280;61365;52.162;4.500;2023-03-01T04:41:19;103070.22;;;0.50;94.02
72685;BME280;61365;52.162;4.500;2023-03-01T04:43:48;103072.72;;;0.49;94.14
72685;BME280;61365;52.162;4.500;2023-03-01T04:46:17;103068.31;;;0.48;94.01
72685;BME280;61365;52.162;4.500;2023-03-01T04:48:46;103064.38;;;0.53;93.87
72685;BME280;61365;52.162;4.500;2023-03-01T04:51:13;103062.69;;;0.41;93.69
72685;BME280;61365;52.162;4.500;2023-03-01T04:53:41;103058.59;;;0.33;94.04
72685;BME280;61365;52.162;4.500;2023-03-01T04:56:08;103062.88;;;0.33;94.24
72685;BME280;61365;52.162;4.500;2023-03-01T04:58:35;103050.28;;;0.25;93.79
72685;BME280;61365;52.162;4.500;2023-03-01T05:01:09;103048.91;;;0.19;94.09
72685;BME280;61365;52.162;4.500;2023-03-01T05:03:46;103040.13;;;0.17;94.08
72685;BME280;61365;52.162;4.500;2023-03-01T05:06:14;103047.84;;;0.05;94.36
72685;BME280;61365;52.162;4.500;2023-03-01T05:08:42;103056.59;;;0.07;94.14
72685;BME280;61365;52.162;4.500;2023-03-01T05:11:10;103057.38;;;0.06;94.17
72685;BME280;61365;52.162;4.500;2023-03-01T05:13:38;103053.00;;;0.05;94.12
72685;BME280;61365;52.162;4.500;2023-03-01T05:16:07;103057.50;;;0.07;94.14
72685;BME280;61365;52.162;4.500;2023-03-01T05:18:38;103059.81;;;0.04;93.98
72685;BME280;61365;52.162;4.500;2023-03-01T05:21:09;103054.84;;;0.18;94.22
72685;BME280;61365;52.162;4.500;2023-03-01T05:23:38;103051.97;;;0.25;94.16
72685;BME280;61365;52.162;4.500;2023-03-01T05:26:05;103044.13;;;0.35;93.80
72685;BME280;61365;52.162;4.500;2023-03-01T05:28:33;103039.47;;;0.19;93.49
72685;BME280;61365;52.162;4.500;2023-03-01T05:30:59;103035.47;;;0.23;93.68
72685;BME280;61365;52.162;4.500;2023-03-01T05:33:27;103031.72;;;0.19;93.41
72685;BME280;61365;52.162;4.500;2023-03-01T05:35:54;103033.94;;;0.14;93.64
72685;BME280;61365;52.162;4.500;2023-03-01T05:38:20;103018.56;;;0.16;93.47
72685;BME280;61365;52.162;4.500;2023-03-01T05:40:48;103016.31;;;0.09;93.54
72685;BME280;61365;52.162;4.500;2023-03-01T05:43:16;103021.34;;;0.07;93.51
72685;BME280;61365;52.162;4.500;2023-03-01T05:45:44;103017.88;;;0.07;93.64
72685;BME280;61365;52.162;4.500;2023-03-01T05:48:12;103013.50;;;0.06;93.42
72685;BME280;61365;52.162;4.500;2023-03-01T05:50:43;103009.75;;;0.02;93.08
72685;BME280;61365;52.162;4.500;2023-03-01T05:53:12;103013.34;;;0.04;92.81
72685;BME280;61365;52.162;4.500;2023-03-01T05:55:41;103014.91;;;0.02;92.90
72685;BME280;61365;52.162;4.500;2023-03-01T05:58:15;103019.19;;;0.02;92.56
72685;BME280;61365;52.162;4.500;2023-03-01T06:00:45;103008.97;;;0.03;92.92
72685;BME280;61365;52.162;4.500;2023-03-01T06:03:15;103002.78;;;0.01;92.80
72685;BME280;61365;52.162;4.500;2023-03-01T06:05:43;103007.00;;;0.11;92.41
72685;BME280;61365;52.162;4.500;2023-03-01T06:08:12;103004.63;;;0.14;92.22
72685;BME280;61365;52.162;4.500;2023-03-01T06:10:40;102999.25;;;0.11;92.17
72685;BME280;61365;52.162;4.500;2023-03-01T06:13:06;102997.91;;;0.16;91.48
72685;BME280;61365;52.162;4.500;2023-03-01T06:15:33;103001.13;;;0.02;91.68
72685;BME280;61365;52.162;4.500;2023-03-01T06:17:59;103009.75;;;0.02;91.96
72685;BME280;61365;52.162;4.500;2023-03-01T06:20:28;103006.78;;;0.08;91.78
72685;BME280;61365;52.162;4.500;2023-03-01T06:22:55;103006.53;;;0.05;91.42
72685;BME280;61365;52.162;4.500;2023-03-01T06:25:23;103012.81;;;0.08;91.69
72685;BME280;61365;52.162;4.500;2023-03-01T06:27:53;103007.13;;;0.12;91.92
72685;BME280;61365;52.162;4.500;2023-03-01T06:30:21;103016.91;;;0.17;91.52
72685;BME280;61365;52.162;4.500;2023-03-01T06:32:49;103006.69;;;0.18;91.64
72685;BME280;61365;52.162;4.500;2023-03-01T06:35:17;103005.56;;;0.14;90.96
72685;BME280;61365;52.162;4.500;2023-03-01T06:37:46;103004.63;;;0.14;90.85
72685;BME280;61365;52.162;4.500;2023-03-01T06:40:13;103002.97;;;0.14;90.90
72685;BME280;61365;52.162;4.500;2023-03-01T06:42:43;103006.56;;;0.17;90.68
72685;BME280;61365;52.162;4.500;2023-03-01T06:45:13;103004.03;;;0.28;90.58
72685;BME280;61365;52.162;4.500;2023-03-01T06:47:40;103008.19;;;0.38;90.76
72685;BME280;61365;52.162;4.500;2023-03-01T06:50:07;103005.06;;;0.42;90.34
72685;BME280;61365;52.162;4.500;2023-03-01T06:52:34;103000.03;;;0.56;89.86
72685;BME280;61365;52.162;4.500;2023-03-01T06:55:01;102999.16;;;0.67;89.30
72685;BME280;61365;52.162;4.500;2023-03-01T06:57:27;103011.31;;;0.80;88.88
72685;BME280;61365;52.162;4.500;2023-03-01T06:59:54;103023.31;;;1.03;88.52
72685;BME280;61365;52.162;4.500;2023-03-01T07:02:21;103011.88;;;1.12;87.69
72685;BME280;61365;52.162;4.500;2023-03-01T07:04:51;103018.50;;;1.32;87.16
72685;BME280;61365;52.162;4.500;2023-03-01T07:07:18;103009.00;;;1.44;86.32
72685;BME280;61365;52.162;4.500;2023-03-01T07:09:49;103014.25;;;1.70;85.82
72685;BME280;61365;52.162;4.500;2023-03-01T07:12:16;103005.53;;;1.81;84.81
72685;BME280;61365;52.162;4.500;2023-03-01T07:14:43;102998.72;;;1.95;84.08
72685;BME280;61365;52.162;4.500;2023-03-01T07:17:13;103003.19;;;2.09;84.12
72685;BME280;61365;52.162;4.500;2023-03-01T07:19:41;102996.25;;;2.22;83.32
72685;BME280;61365;52.162;4.500;2023-03-01T07:22:08;103007.97;;;2.55;83.17
72685;BME280;61365;52.162;4.500;2023-03-01T07:24:35;103005.84;;;2.89;80.37
72685;BME280;61365;52.162;4.500;2023-03-01T07:27:02;103009.03;;;2.98;77.91
72685;BME280;61365;52.162;4.500;2023-03-01T07:29:30;103008.63;;;3.05;78.42
72685;BME280;61365;52.162;4.500;2023-03-01T07:31:57;103014.03;;;3.22;78.41
72685;BME280;61365;52.162;4.500;2023-03-01T07:34:24;103009.81;;;3.10;78.89
72685;BME280;61365;52.162;4.500;2023-03-01T07:36:53;103008.69;;;3.47;77.95
72685;BME280;61365;52.162;4.500;2023-03-01T07:39:20;103009.53;;;3.74;76.42
72685;BME280;61365;52.162;4.500;2023-03-01T07:41:49;103013.47;;;3.83;76.11
72685;BME280;61365;52.162;4.500;2023-03-01T07:44:16;103013.22;;;3.78;75.91
72685;BME280;61365;52.162;4.500;2023-03-01T07:46:43;103009.59;;;3.89;76.06
72685;BME280;61365;52.162;4.500;2023-03-01T07:49:13;103011.13;;;4.01;76.11
72685;BME280;61365;52.162;4.500;2023-03-01T07:51:39;103010.28;;;4.15;75.98
72685;BME280;61365;52.162;4.500;2023-03-01T07:54:09;103015.31;;;4.27;76.11
72685;BME280;61365;52.162;4.500;2023-03-01T07:56:35;103018.88;;;4.29;76.10
72685;BME280;61365;52.162;4.500;2023-03-01T07:59:02;103009.31;;;4.43;75.76
72685;BME280;61365;52.162;4.500;2023-03-01T08:01:28;103011.91;;;4.28;75.64
72685;BME280;61365;52.162;4.500;2023-03-01T08:03:54;103001.09;;;4.65;75.79
72685;BME280;61365;52.162;4.500;2023-03-01T08:06:21;103004.38;;;4.93;74.96
72685;BME280;61365;52.162;4.500;2023-03-01T08:08:47;103006.47;;;4.69;74.73
72685;BME280;61365;52.162;4.500;2023-03-01T08:11:14;103006.78;;;5.05;75.12
72685;BME280;61365;52.162;4.500;2023-03-01T08:13:49;103006.72;;;4.58;78.24
72685;BME280;61365;52.162;4.500;2023-03-01T08:16:24;103012.66;;;4.56;76.88
72685;BME280;61365;52.162;4.500;2023-03-01T08:19:07;103009.44;;;4.16;78.94
72685;BME280;61365;52.162;4.500;2023-03-01T08:21:42;103006.00;;;4.31;78.94
72685;BME280;61365;52.162;4.500;2023-03-01T08:24:14;103001.69;;;4.61;79.26
72685;BME280;61365;52.162;4.500;2023-03-01T08:26:41;103000.88;;;4.92;77.51
72685;BME280;61365;52.162;4.500;2023-03-01T08:29:08;102992.72;;;4.71;77.37
72685;BME280;61365;52.162;4.500;2023-03-01T08:31:38;103001.31;;;4.85;76.96
72685;BME280;61365;52.162;4.500;2023-03-01T08:34:14;102992.75;;;5.18;75.30
72685;BME280;61365;52.162;4.500;2023-03-01T08:36:46;102995.00;;;4.65;76.01
72685;BME280;61365;52.162;4.500;2023-03-01T08:39:17;102993.81;;;4.45;77.06
72685;BME280;61365;52.162;4.500;2023-03-01T08:41:49;102997.09;;;4.12;78.31
72685;BME280;61365;52.162;4.500;2023-03-01T08:44:30;102980.81;;;4.45;77.63
72685;BME280;61365;52.162;4.500;2023-03-01T08:47:01;102989.00;;;4.51;76.76
72685;BME280;61365;52.162;4.500;2023-03-01T08:49:31;102990.31;;;4.44;77.11
72685;BME280;61365;52.162;4.500;2023-03-01T08:52:03;102998.44;;;4.20;78.85
72685;BME280;61365;52.162;4.500;2023-03-01T08:54:36;102987.75;;;5.06;75.40
72685;BME280;61365;52.162;4.500;2023-03-01T08:57:02;102988.88;;;4.79;74.79
72685;BME280;61365;52.162;4.500;2023-03-01T08:59:29;102993.69;;;5.35;73.83
72685;BME280;61365;52.162;4.500;2023-03-01T09:01:56;102991.69;;;5.14;73.89
72685;BME280;61365;52.162;4.500;2023-03-01T09:04:22;102988.31;;;5.32;75.69
72685;BME280;61365;52.162;4.500;2023-03-01T09:06:49;102986.44;;;5.77;73.09
72685;BME280;61365;52.162;4.500;2023-03-01T09:09:17;102992.84;;;5.84;71.55
72685;BME280;61365;52.162;4.500;2023-03-01T09:11:44;102993.28;;;5.44;73.84
72685;BME280;61365;52.162;4.500;2023-03-01T09:14:16;102990.78;;;5.45;74.34
72685;BME280;61365;52.162;4.500;2023-03-01T09:16:43;102969.31;;;6.15;71.77
72685;BME280;61365;52.162;4.500;2023-03-01T09:19:09;102983.31;;;5.84;73.01
72685;BME280;61365;52.162;4.500;2023-03-01T09:21:37;102971.59;;;6.09;71.87
72685;BME280;61365;52.162;4.500;2023-03-01T09:24:04;102979.97;;;6.20;69.87
72685;BME280;61365;52.162;4.500;2023-03-01T09:26:30;102979.16;;;5.55;73.48
72685;BME280;61365;52.162;4.500;2023-03-01T09:28:57;102983.47;;;5.88;71.87
72685;BME280;61365;52.162;4.500;2023-03-01T09:31:26;102985.69;;;5.32;73.67
72685;BME280;61365;52.162;4.500;2023-03-01T09:33:53;102984.84;;;5.48;74.34
72685;BME280;61365;52.162;4.500;2023-03-01T09:36:23;102973.03;;;5.38;74.95
72685;BME280;61365;52.162;4.500;2023-03-01T09:38:53;102972.63;;;5.47;74.06
72685;BME280;61365;52.162;4.500;2023-03-01T09:47:14;102970.88;;;5.79;73.04
72685;BME280;61365;52.162;4.500;2023-03-01T09:52:48;102955.34;;;6.84;68.95
72685;BME280;61365;52.162;4.500;2023-03-01T09:55:40;102954.88;;;6.57;69.17
72685;BME280;61365;52.162;4.500;2023-03-01T09:58:39;102955.13;;;6.80;67.82
72685;BME280;61365;52.162;4.500;2023-03-01T10:01:38;102961.06;;;6.59;68.38
72685;BME280;61365;52.162;4.500;2023-03-01T10:10:06;102961.72;;;6.20;71.80
72685;BME280;61365;52.162;4.500;2023-03-01T10:12:39;102966.56;;;6.29;73.28
72685;BME280;61365;52.162;4.500;2023-03-01T10:15:14;102956.84;;;6.97;67.99
72685;BME280;61365;52.162;4.500;2023-03-01T10:17:54;102953.25;;;6.24;68.95
72685;BME280;61365;52.162;4.500;2023-03-01T10:23:04;102954.75;;;6.54;69.05
72685;BME280;61365;52.162;4.500;2023-03-01T10:28:38;102944.81;;;6.12;71.79
72685;BME280;61365;52.162;4.500;2023-03-01T10:31:43;102932.75;;;6.67;69.97
72685;BME280;61365;52.162;4.500;2023-03-01T10:34:17;102931.00;;;6.49;69.88
72685;BME280;61365;52.162;4.500;2023-03-01T10:36:56;102927.81;;;6.91;67.04
72685;BME280;61365;52.162;4.500;2023-03-01T10:39:26;102927.19;;;6.24;66.40
72685;BME280;61365;52.162;4.500;2023-03-01T10:42:00;102920.63;;;6.14;68.78
72685;BME280;61365;52.162;4.500;2023-03-01T10:47:16;102908.16;;;6.61;68.57
72685;BME280;61365;52.162;4.500;2023-03-01T10:50:02;102909.72;;;6.76;67.83
72685;BME280;61365;52.162;4.500;2023-03-01T10:52:36;102903.78;;;5.91;69.01
72685;BME280;61365;52.162;4.500;2023-03-01T10:57:41;102901.97;;;6.59;67.88
72685;BME280;61365;52.162;4.500;2023-03-01T11:00:21;102906.38;;;6.60;67.38
72685;BME280;61365;52.162;4.500;2023-03-01T11:03:13;102904.59;;;5.90;68.32
72685;BME280;61365;52.162;4.500;2023-03-01T11:06:19;102898.88;;;6.32;70.47
72685;BME280;61365;52.162;4.500;2023-03-01T11:08:49;102890.69;;;5.73;73.29
72685;BME280;61365;52.162;4.500;2023-03-01T11:11:20;102894.41;;;5.95;69.34
72685;BME280;61365;52.162;4.500;2023-03-01T11:16:29;102897.16;;;6.14;67.57
72685;BME280;61365;52.162;4.500;2023-03-01T11:19:16;102889.72;;;5.71;73.08
72685;BME280;61365;52.162;4.500;2023-03-01T11:22:11;102889.75;;;6.06;71.54
72685;BME280;61365;52.162;4.500;2023-03-01T11:24:52;102882.31;;;6.13;71.66
72685;BME280;61365;52.162;4.500;2023-03-01T11:27:28;102867.59;;;6.68;69.22
72685;BME280;61365;52.162;4.500;2023-03-01T11:30:20;102855.72;;;6.93;67.73
72685;BME280;61365;52.162;4.500;2023-03-01T11:35:43;102857.78;;;7.00;67.77
72685;BME280;61365;52.162;4.500;2023-03-01T11:38:21;102852.00;;;6.70;65.54
72685;BME280;61365;52.162;4.500;2023-03-01T11:40:54;102839.72;;;6.67;60.34
72685;BME280;61365;52.162;4.500;2023-03-01T11:43:39;102845.69;;;6.65;64.37
72685;BME280;61365;52.162;4.500;2023-03-01T12:07:52;102815.63;;;6.17;50.55
72685;BME280;61365;52.162;4.500;2023-03-01T12:10:33;102821.56;;;6.14;49.56
72685;BME280;61365;52.162;4.500;2023-03-01T12:13:49;102819.16;;;6.19;49.84
72685;BME280;61365;52.162;4.500;2023-03-01T12:19:43;102803.81;;;6.07;53.91
72685;BME280;61365;52.162;4.500;2023-03-01T12:29:25;102788.53;;;6.51;51.16
72685;BME280;61365;52.162;4.500;2023-03-01T12:31:32;102789.81;;;6.41;52.60
72685;BME280;61365;52.162;4.500;2023-03-01T12:46:41;102782.09;;;6.43;50.53
72685;BME280;61365;52.162;4.500;2023-03-01T12:49:38;102779.72;;;5.95;51.51
72685;BME280;61365;52.162;4.500;2023-03-01T12:52:18;102802.69;;;6.38;52.19
72685;BME280;61365;52.162;4.500;2023-03-01T12:54:53;102794.38;;;6.27;52.79
72685;BME280;61365;52.162;4.500;2023-03-01T12:58:09;102777.28;;;6.34;51.74
72685;BME280;61365;52.162;4.500;2023-03-01T13:00:45;102761.22;;;6.25;51.82
72685;BME280;61365;52.162;4.500;2023-03-01T13:03:52;102777.28;;;6.52;50.59
72685;BME280;61365;52.162;4.500;2023-03-01T13:06:35;102767.00;;;6.37;50.08
72685;BME280;61365;52.162;4.500;2023-03-01T13:12:03;102747.53;;;6.86;50.80
72685;BME280;61365;52.162;4.500;2023-03-01T13:14:53;102755.09;;;6.42;51.33
72685;BME280;61365;52.162;4.500;2023-03-01T13:17:32;102762.47;;;6.71;50.56
72685;BME280;61365;52.162;4.500;2023-03-01T13:20:13;102740.88;;;6.36;52.98
72685;BME280;61365;52.162;4.500;2023-03-01T13:22:47;102742.72;;;6.38;53.27
72685;BME280;61365;52.162;4.500;2023-03-01T13:25:27;102743.19;;;6.29;54.76
72685;BME280;61365;52.162;4.500;2023-03-01T13:33:50;102753.25;;;6.22;53.36
72685;BME280;61365;52.162;4.500;2023-03-01T13:49:46;102718.22;;;5.98;54.62
72685;BME280;61365;52.162;4.500;2023-03-01T13:55:14;102701.44;;;6.67;53.38
72685;BME280;61365;52.162;4.500;2023-03-01T13:57:48;102712.69;;;6.46;53.01
72685;BME280;61365;52.162;4.500;2023-03-01T14:00:39;102708.78;;;6.19;52.98
72685;BME280;61365;52.162;4.500;2023-03-01T14:03:15;102687.75;;;6.34;53.70
72685;BME280;61365;52.162;4.500;2023-03-01T14:06:14;102696.88;;;6.24;54.15
72685;BME280;61365;52.162;4.500;2023-03-01T14:08:48;102684.84;;;6.27;54.46
72685;BME280;61365;52.162;4.500;2023-03-01T14:11:43;102666.91;;;6.34;54.80
72685;BME280;61365;52.162;4.500;2023-03-01T14:14:51;102668.66;;;6.94;52.84
72685;BME280;61365;52.162;4.500;2023-03-01T14:20:18;102672.25;;;6.37;53.92
72685;BME280;61365;52.162;4.500;2023-03-01T14:22:56;102671.34;;;6.36;52.91
72685;BME280;61365;52.162;4.500;2023-03-01T14:30:41;102655.59;;;6.53;51.87
72685;BME280;61365;52.162;4.500;2023-03-01T14:33:36;102651.72;;;6.64;53.40
72685;BME280;61365;52.162;4.500;2023-03-01T14:38:41;102643.75;;;6.22;53.73
72685;BME280;61365;52.162;4.500;2023-03-01T14:41:14;102641.31;;;6.25;53.66
72685;BME280;61365;52.162;4.500;2023-03-01T14:44:05;102641.50;;;6.69;53.05
72685;BME280;61365;52.162;4.500;2023-03-01T14:46:41;102628.44;;;6.69;52.52
72685;BME280;61365;52.162;4.500;2023-03-01T14:49:14;102622.53;;;6.93;51.60
72685;BME280;61365;52.162;4.500;2023-03-01T14:52:05;102610.38;;;6.93;51.97
72685;BME280;61365;52.162;4.500;2023-03-01T14:54:43;102624.97;;;6.49;52.69
72685;BME280;61365;52.162;4.500;2023-03-01T14:57:19;102605.56;;;6.42;54.58
72685;BME280;61365;52.162;4.500;2023-03-01T14:59:52;102599.94;;;6.93;53.69
72685;BME280;61365;52.162;4.500;2023-03-01T15:02:31;102606.50;;;6.64;53.77
72685;BME280;61365;52.162;4.500;2023-03-01T15:05:01;102610.97;;;6.46;53.25
72685;BME280;61365;52.162;4.500;2023-03-01T15:07:34;102605.56;;;6.83;53.08
72685;BME280;61365;52.162;4.500;2023-03-01T15:10:11;102601.69;;;6.53;54.32
72685;BME280;61365;52.162;4.500;2023-03-01T15:16:27;102617.28;;;6.71;52.98
72685;BME280;61365;52.162;4.500;2023-03-01T15:19:05;102610.28;;;6.51;52.84
72685;BME280;61365;52.162;4.500;2023-03-01T15:21:40;102607.19;;;6.59;53.36
72685;BME280;61365;52.162;4.500;2023-03-01T15:26:59;102609.03;;;6.23;53.28
72685;BME280;61365;52.162;4.500;2023-03-01T15:29:34;102601.09;;;6.39;53.24
72685;BME280;61365;52.162;4.500;2023-03-01T15:32:30;102590.25;;;6.90;51.71
72685;BME280;61365;52.162;4.500;2023-03-01T15:35:42;102596.91;;;6.63;51.63
72685;BME280;61365;52.162;4.500;2023-03-01T15:38:32;102597.91;;;6.66;52.21